地図

経路データ

SID SEASON NUMBER BASIN SUBBASIN NAME ISO_TIME NATURE LAT LON WMO_WIND WMO_PRES WMO_AGENCY TRACK_TYPE DIST2LAND LANDFALL IFLAG USA_AGENCY USA_ATCF_ID USA_LAT USA_LON USA_RECORD USA_STATUS USA_WIND USA_PRES USA_SSHS USA_R34_NE USA_R34_SE USA_R34_SW USA_R34_NW USA_R50_NE USA_R50_SE USA_R50_SW USA_R50_NW USA_R64_NE USA_R64_SE USA_R64_SW USA_R64_NW USA_POCI USA_ROCI USA_RMW USA_EYE TOKYO_LAT TOKYO_LON TOKYO_GRADE TOKYO_WIND TOKYO_PRES TOKYO_R50_DIR TOKYO_R50_LONG TOKYO_R50_SHORT TOKYO_R30_DIR TOKYO_R30_LONG TOKYO_R30_SHORT TOKYO_LAND CMA_LAT CMA_LON CMA_CAT CMA_WIND CMA_PRES HKO_LAT HKO_LON HKO_CAT HKO_WIND HKO_PRES NEWDELHI_LAT NEWDELHI_LON NEWDELHI_GRADE NEWDELHI_WIND NEWDELHI_PRES NEWDELHI_CI NEWDELHI_DP NEWDELHI_POCI REUNION_LAT REUNION_LON REUNION_TYPE REUNION_WIND REUNION_PRES REUNION_TNUM REUNION_CI REUNION_RMW REUNION_R34_NE REUNION_R34_SE REUNION_R34_SW REUNION_R34_NW REUNION_R50_NE REUNION_R50_SE REUNION_R50_SW REUNION_R50_NW REUNION_R64_NE REUNION_R64_SE REUNION_R64_SW REUNION_R64_NW BOM_LAT BOM_LON BOM_TYPE BOM_WIND BOM_PRES BOM_TNUM BOM_CI BOM_RMW BOM_R34_NE BOM_R34_SE BOM_R34_SW BOM_R34_NW BOM_R50_NE BOM_R50_SE BOM_R50_SW BOM_R50_NW BOM_R64_NE BOM_R64_SE BOM_R64_SW BOM_R64_NW BOM_ROCI BOM_POCI BOM_EYE BOM_POS_METHOD BOM_PRES_METHOD NADI_LAT NADI_LON NADI_CAT NADI_WIND NADI_PRES WELLINGTON_LAT WELLINGTON_LON WELLINGTON_WIND WELLINGTON_PRES DS824_LAT DS824_LON DS824_STAGE DS824_WIND DS824_PRES TD9636_LAT TD9636_LON TD9636_STAGE TD9636_WIND TD9636_PRES TD9635_LAT TD9635_LON TD9635_WIND TD9635_PRES TD9635_ROCI NEUMANN_LAT NEUMANN_LON NEUMANN_CLASS NEUMANN_WIND NEUMANN_PRES MLC_LAT MLC_LON MLC_CLASS MLC_WIND MLC_PRES USA_GUST BOM_GUST BOM_GUST_PER REUNION_GUST REUNION_GUST_PER USA_SEAHGT USA_SEARAD_NE USA_SEARAD_SE USA_SEARAD_SW USA_SEARAD_NW STORM_SPEED STORM_DIR
1940054S12058 1940 12 SI MM NOT_NAMED 1940-02-23 06:00:00 NR -11.7000 57.9000 reunion main 878 878 _____O________ -1 -11.7000 57.9000 99 9.90000 1 262
1940054S12058 1940 12 SI MM NOT_NAMED 1940-02-23 09:00:00 NR -11.7057 57.8600 main 878 867 _____P________ -1 -11.7057 57.8600 99 1 261
1940054S12058 1940 12 SI MM NOT_NAMED 1940-02-23 12:00:00 NR -11.7121 57.8155 main 867 867 _____P________ -1 -11.7121 57.8155 99 1 262
1940054S12058 1940 12 SI MM NOT_NAMED 1940-02-23 15:00:00 NR -11.7198 57.7619 main 867 864 _____P________ -1 -11.7198 57.7619 99 1 133
1940054S12058 1940 12 SI MM NOT_NAMED 1940-02-23 18:00:00 NR -11.7835 57.8958 main 875 875 _____P____O___ -1 -11.7294 57.6948 99 -12.0000 58.7000 1 2 130
1940054S12058 1940 12 SI MM NOT_NAMED 1940-02-23 21:00:00 NR -11.8324 57.9032 main 875 861 _____P____P___ -1 -11.7416 57.6096 99 -12.0141 58.4906 1 1 213
1940054S12058 1940 12 SI MM NOT_NAMED 1940-02-24 00:00:00 TS -11.9032 57.8127 main 861 837 _____P___OP___ -1 -11.7570 57.5017 99 -12.1000 57.7000 TC 25 -12.0324 58.2650 1 3 247
1940054S12058 1940 12 SI MM NOT_NAMED 1940-02-24 03:00:00 TS -11.9624 57.5969 main 837 806 _____P___PP___ -1 -11.7763 57.3667 99 -12.1402 57.2375 TC 25 -12.0596 58.0069 1 5 258
1940054S12058 1940 12 SI MM NOT_NAMED 1940-02-24 06:00:00 TS -12.0182 57.2727 reunion main 806 761 _____O___OO___ -1 -11.8000 57.2000 99 9.90000 -12.2000 56.8000 TC 25 -12.1000 57.7000 1 7 259
1940054S12058 1940 12 SI MM NOT_NAMED 1940-02-24 09:00:00 TS -12.0925 56.9108 main 761 727 _____P___PP___ -1 -11.8285 56.9990 99 -12.2924 56.4000 TC 25 -12.1566 57.3334 1 7 258
1940054S12058 1940 12 SI MM NOT_NAMED 1940-02-24 12:00:00 TS -12.1629 56.5622 main 727 685 _____P___OP___ -1 -11.8612 56.7692 99 -12.4000 56.0000 TC 25 -12.2275 56.9174 1 7 259
1940054S12058 1940 12 SI MM NOT_NAMED 1940-02-24 15:00:00 TS -12.2356 56.1835 main 685 640 _____P___PP___ -1 -11.8973 56.5180 99 -12.4999 55.5650 TC 25 -12.3096 56.4677 1 8 259
1940054S12058 1940 12 SI MM NOT_NAMED 1940-02-24 18:00:00 TS -12.3120 55.7842 main 640 595 _____P___OO___ -1 -11.9359 56.2527 99 -12.6000 55.1000 TC 25 -12.4000 56.0000 1 8 259
1940054S12058 1940 12 SI MM NOT_NAMED 1940-02-24 21:00:00 TS -12.3989 55.3409 main 584 540 _____P___PP___ -1 -11.9762 55.9808 99 -12.7152 54.5551 TC 25 -12.5054 55.4868 1 9 259
1940054S12058 1940 12 SI MM NOT_NAMED 1940-02-25 00:00:00 TS -12.4777 54.9259 main 540 508 _____P___OP___ -1 -12.0175 55.7098 99 -12.8000 54.1000 TC 25 -12.6156 54.9679 1 7 260
1940054S12058 1940 12 SI MM NOT_NAMED 1940-02-25 03:00:00 TS -12.5281 54.6115 main 508 484 _____P___PP___ -1 -12.0590 55.4470 99 -12.8073 53.8974 TC 25 -12.7179 54.4899 1 6 261
1940054S12058 1940 12 SI MM NOT_NAMED 1940-02-25 06:00:00 TS -12.5667 54.3667 reunion main 484 463 _____O___OO___ -1 -12.1000 55.2000 99 9.90000 -12.8000 53.8000 TC 25 -12.8000 54.1000 1 4 259
1940054S12058 1940 12 SI MM NOT_NAMED 1940-02-25 09:00:00 TS -12.6105 54.1613 main 463 442 _____P___PP___ -1 -12.1354 54.9932 99 -12.8500 53.6425 TC 25 -12.8461 53.8482 1 4 257
1940054S12058 1940 12 SI MM NOT_NAMED 1940-02-25 12:00:00 TS -12.6475 53.9953 main 442 429 _____P___OP___ -1 -12.1706 54.7987 99 -12.9000 53.5000 TC 25 -12.8719 53.6873 1 3 260
1940054S12058 1940 12 SI MM NOT_NAMED 1940-02-25 15:00:00 TS -12.6643 53.8633 main 429 419 _____P___PP___ -1 -12.2060 54.6147 99 -12.9000 53.3925 TC 25 -12.8868 53.5827 1 2 262
1940054S12058 1940 12 SI MM NOT_NAMED 1940-02-25 18:00:00 TS -12.6807 53.7466 main 408 397 _____P___OO___ -1 -12.2420 54.4399 99 -12.9000 53.3000 TC 25 -12.9000 53.5000 1 2 258
1940054S12058 1940 12 SI MM NOT_NAMED 1940-02-25 21:00:00 TS -12.7141 53.6246 main 397 384 _____P___PP___ -1 -12.2791 54.2725 99 -12.9425 53.2075 TC 25 -12.9209 53.3937 1 2 253
1940054S12058 1940 12 SI MM NOT_NAMED 1940-02-26 00:00:00 TS -12.7533 53.5037 main 384 374 _____P___OP___ -1 -12.3175 54.1112 99 -13.0000 53.1000 TC 25 -12.9424 53.2999 1 3 253
1940054S12058 1940 12 SI MM NOT_NAMED 1940-02-26 03:00:00 TS -12.7918 53.3726 main 374 353 _____P___PP___ -1 -12.3577 53.9542 99 -13.0500 52.9575 TC 25 -12.9677 53.2062 1 3 253
1940054S12058 1940 12 SI MM NOT_NAMED 1940-02-26 06:00:00 TS -12.8333 53.2333 reunion main 353 340 _____O___OO___ -1 -12.4000 53.8000 99 9.90000 -13.1000 52.8000 TC 25 -13.0000 53.1000 1 3 253
1940054S12058 1940 12 SI MM NOT_NAMED 1940-02-26 09:00:00 TS -12.8794 53.0869 main 340 319 _____P___PP___ -1 -12.4414 53.6464 99 -13.1500 52.6500 TC 25 -13.0469 52.9644 1 3 252
1940054S12058 1940 12 SI MM NOT_NAMED 1940-02-26 12:00:00 TS -12.9281 52.9376 main 319 305 _____P___OP___ -1 -12.4844 53.4976 99 -13.2000 52.5000 TC 25 -13.1000 52.8150 1 3 251
1940054S12058 1940 12 SI MM NOT_NAMED 1940-02-26 15:00:00 TS -12.9800 52.7867 main 305 285 _____P___PP___ -1 -12.5295 53.3519 99 -13.2575 52.3500 TC 25 -13.1531 52.6582 1 3 252
1940054S12058 1940 12 SI MM NOT_NAMED 1940-02-26 18:00:00 TS -13.0257 52.6357 main 285 274 _____P___OO___ -1 -12.5771 53.2072 99 -13.3000 52.2000 TC 25 -13.2000 52.5000 1 3 256
1940054S12058 1940 12 SI MM NOT_NAMED 1940-02-26 21:00:00 TS -13.0504 52.5066 main 271 260 _____P___PP___ -1 -12.6276 53.0617 99 -13.2999 52.0800 TC 25 -13.2239 52.3783 1 3 260
1940054S12058 1940 12 SI MM NOT_NAMED 1940-02-27 00:00:00 TS -13.0745 52.3552 main 260 240 _____P___OP___ -1 -12.6813 52.9132 99 -13.3000 51.9000 TC 25 -13.2422 52.2523 1 4 260
1940054S12058 1940 12 SI MM NOT_NAMED 1940-02-27 03:00:00 TS -13.1127 52.1442 main 229 205 _____P___PP___ -1 -12.7386 52.7600 99 -13.3351 51.5725 TC 25 -13.2644 52.1002 1 5 258
1940054S12058 1940 12 SI MM NOT_NAMED 1940-02-27 06:00:00 TS -13.1667 51.9000 reunion main 205 185 _____O___OO___ -1 -12.8000 52.6000 99 9.90000 -13.4000 51.2000 TC 25 -13.3000 51.9000 1 5 255
1940054S12058 1940 12 SI MM NOT_NAMED 1940-02-27 09:00:00 TS -13.2375 51.6570 main 185 151 _____P___PP___ -1 -12.8636 52.4416 99 -13.4924 50.9000 TC 25 -13.3566 51.6294 1 5 253
1940054S12058 1940 12 SI MM NOT_NAMED 1940-02-27 12:00:00 TS -13.3196 51.3963 main 151 117 _____P___OP___ -1 -12.9312 52.2788 99 -13.6000 50.6000 TC 25 -13.4276 51.3100 1 6 253
1940054S12058 1940 12 SI MM NOT_NAMED 1940-02-27 15:00:00 TS -13.4040 51.1092 main 117 82 _____P___PP___ -1 -13.0024 52.1096 99 -13.7000 50.2575 TC 25 -13.5097 50.9606 1 6 253
1940054S12058 1940 12 SI MM NOT_NAMED 1940-02-27 18:00:00 TS -13.4923 50.8107 main 82 48 _____P___OO___ -1 -13.0768 51.9321 99 -13.8000 49.9000 TC 25 -13.6000 50.6000 1 6 253
1940054S12058 1940 12 SI MM NOT_NAMED 1940-02-27 21:00:00 TS -13.5837 50.5120 main 48 15 _____P___PP___ -1 -13.1542 51.7443 99 -13.9000 49.5425 TC 25 -13.6969 50.2491 1 6 252
1940054S12058 1940 12 SI MM NOT_NAMED 1940-02-28 00:00:00 TS -13.6780 50.2123 main 15 0 _____P___OP___ -1 -13.2341 51.5443 99 -14.0000 49.2000 TC 25 -13.8000 49.8926 1 6 252
1940054S12058 1940 12 SI MM NOT_NAMED 1940-02-28 03:00:00 TS -13.7756 49.9208 main 0 0 _____P___PP___ -1 -13.3162 51.3302 99 -14.1074 48.8925 TC 25 -13.9031 49.5397 1 6 251
1940054S12058 1940 12 SI MM NOT_NAMED 1940-02-28 06:00:00 TS -13.8667 49.6333 reunion main 0 0 _____O___OO___ -1 -13.4000 51.1000 99 9.90000 -14.2000 48.6000 TC 25 -14.0000 49.2000 1 6 254
1940054S12058 1940 12 SI MM NOT_NAMED 1940-02-28 09:00:00 TS -13.9349 49.3488 main 0 0 _____P___PP___ -1 -13.4852 50.8524 99 -14.2499 48.3074 TC 25 -14.0738 48.8895 1 6 256
1940054S12058 1940 12 SI MM NOT_NAMED 1940-02-28 12:00:00 TS -14.0020 49.0582 main 0 0 _____P___OP___ -1 -13.5715 50.5890 99 -14.3000 48.0000 TC 25 -14.1422 48.5922 1 6 256
1940054S12058 1940 12 SI MM NOT_NAMED 1940-02-28 15:00:00 TS -14.0827 48.7501 main 0 0 _____P___PP___ -1 -13.6588 50.3119 99 -14.3850 47.6500 TC 25 -14.2145 48.2988 1 6 254
1940054S12058 1940 12 SI MM NOT_NAMED 1940-02-28 18:00:00 TS -14.1784 48.4366 main 0 0 _____P___OO___ -1 -13.7466 50.0234 99 -14.5000 47.3000 TC 25 -14.3000 48.0000 1 6 252
1940054S12058 1940 12 SI MM NOT_NAMED 1940-02-28 21:00:00 TS -14.2698 48.1528 main 0 0 _____P___PP___ -1 -13.8349 49.7258 99 -14.6122 47.0297 TC 30 -14.3736 47.7180 1 6 249
1940054S12058 1940 12 SI MM NOT_NAMED 1940-02-29 00:00:00 TS -14.3935 47.8437 main 0 0 _____P___OP___ -1 -13.9233 49.4211 99 -14.8000 46.7000 TC 35 -14.4667 47.4237 1 9 246
1940054S12058 1940 12 SI MM NOT_NAMED 1940-02-29 03:00:00 TS -14.6277 47.3118 main 24 24 _____P___PP___ -1 -14.0118 49.1118 99 -15.1201 46.1876 TC 35 -14.6015 47.0927 1 13 244
1940054S12058 1940 12 SI MM NOT_NAMED 1940-02-29 06:00:00 TS -14.9400 46.6800 reunion main 46 35 _____O___OO___ -1 -14.1000 48.8000 99 9.90000 -15.5000 45.6000 TC 35 -14.8000 46.7000 2 15 242
1940054S12058 1940 12 SI MM NOT_NAMED 1940-02-29 09:00:00 TS -15.3102 45.9596 main 54 22 _________PP___ -1 99 -15.8348 45.0571 TC 35 -15.0693 46.2188 2 18 241
1940054S12058 1940 12 SI MM NOT_NAMED 1940-02-29 12:00:00 TS -15.8014 45.0874 main 22 11 _________OP___ -1 99 -16.2000 44.5000 TC 35 -15.4028 45.6748 2 17 237
1940054S12058 1940 12 SI MM NOT_NAMED 1940-02-29 15:00:00 TS -16.2099 44.4967 main 11 0 _________PP___ -1 99 -16.6350 43.8999 TC 35 -15.7848 45.0934 2 14 233
1940054S12058 1940 12 SI MM NOT_NAMED 1940-02-29 18:00:00 TS -16.6500 43.9000 main 53 48 _________OO___ -1 99 -17.1000 43.3000 TC 35 -16.2000 44.5000 2 15 232
1940054S12058 1940 12 SI MM NOT_NAMED 1940-02-29 21:00:00 TS -17.0994 43.2967 main 77 77 _________PP___ -1 99 -17.5650 42.7051 TC 35 -16.6338 43.8883 2 14 231
1940054S12058 1940 12 SI MM NOT_NAMED 1940-03-01 00:00:00 TS -17.5466 42.7381 main 127 127 _________OP___ -1 99 -18.0000 42.2000 TC 35 -17.0931 43.2762 2 13 228
1940054S12058 1940 12 SI MM NOT_NAMED 1940-03-01 03:00:00 TS -17.9565 42.2814 main 178 178 _________PP___ -1 99 -18.3572 41.8620 TC 35 -17.5558 42.7008 2 11 225
1940054S12058 1940 12 SI MM NOT_NAMED 1940-03-01 06:00:00 TS -18.3500 41.9000 reunion main 221 221 _________OO___ -1 -18.7000 41.6000 TC 35 -18.0000 42.2000 2 11 222
1940054S12058 1940 12 SI MM NOT_NAMED 1940-03-01 09:00:00 TS -18.7400 41.5499 main 265 265 _________PP___ -1 -19.0925 41.2924 TC 35 -18.3875 41.8074 2 10 219
1940054S12058 1940 12 SI MM NOT_NAMED 1940-03-01 12:00:00 TS -19.1282 41.2467 main 305 305 _________OP___ -1 -19.5000 41.0000 TC 35 -18.7564 41.4934 2 9 215
1940054S12058 1940 12 SI MM NOT_NAMED 1940-03-01 15:00:00 TS -19.5073 40.9838 main 335 327 _________PP___ -1 -19.8925 40.7348 TC 35 -19.1222 41.2327 2 9 211
1940054S12058 1940 12 SI MM NOT_NAMED 1940-03-01 18:00:00 TS -19.9000 40.7500 main 327 325 _________OO___ -1 -20.3000 40.5000 TC 35 -19.5000 41.0000 2 9 210
1940054S12058 1940 12 SI MM NOT_NAMED 1940-03-01 21:00:00 TS -20.3147 40.4973 main 335 331 _________PP___ -1 -20.7350 40.2775 TC 35 -19.8944 40.7170 2 10 207
1940054S12058 1940 12 SI MM NOT_NAMED 1940-03-02 00:00:00 TS -20.7525 40.2802 main 338 333 _________OP___ -1 -21.2000 40.1000 TC 35 -20.3050 40.4604 2 10 202
1940054S12058 1940 12 SI MM NOT_NAMED 1940-03-02 03:00:00 TS -21.2116 40.1018 main 339 332 _________PP___ -1 -21.6850 39.9551 TC 35 -20.7382 40.2485 2 10 195
1940054S12058 1940 12 SI MM NOT_NAMED 1940-03-02 06:00:00 TS -21.7000 40.0000 reunion main 334 329 _________OO___ -1 -22.2000 39.9000 TC 35 -21.2000 40.1000 2 10 186
1940054S12058 1940 12 SI MM NOT_NAMED 1940-03-02 09:00:00 TS -22.2348 39.9805 main 329 329 _________PP___ -1 -22.7575 39.9623 TC 35 -21.7122 39.9987 2 11 178
1940054S12058 1940 12 SI MM NOT_NAMED 1940-03-02 12:00:00 TS -22.7748 40.0326 main 333 325 _________OP___ -1 -23.3000 40.1000 TC 35 -22.2496 39.9652 2 11 173
1940054S12058 1940 12 SI MM NOT_NAMED 1940-03-02 15:00:00 TS -23.2798 40.1096 main 336 335 _________PP___ -1 -23.7724 40.2203 TC 30 -22.7872 39.9990 2 9 169
1940054S12058 1940 12 SI MM NOT_NAMED 1940-03-02 18:00:00 TS -23.6857 40.2286 main 341 326 _________OO___ -1 -24.2000 40.4000 TC 25 -23.3000 40.1000 2 8 161
1940054S12058 1940 12 SI MM NOT_NAMED 1940-03-02 21:00:00 TS -24.0478 40.4007 main 326 311 _________PP___ -1 -24.6052 40.6720 TC 25 -23.7691 40.2651 2 8 154
1940054S12058 1940 12 SI MM NOT_NAMED 1940-03-03 00:00:00 TS -24.4004 40.6107 main 314 307 _________OP___ -1 -25.0000 41.0000 TC 25 -24.2006 40.4810 2 6 152
1940054S12058 1940 12 SI MM NOT_NAMED 1940-03-03 03:00:00 NR -24.6068 40.7314 main 308 284 __________P___ -1 TC -24.6068 40.7314 2 7 149
1940054S12058 1940 12 SI MM NOT_NAMED 1940-03-03 06:00:00 NR -25.0000 41.0000 reunion main 285 __________O___ -1 -25.0000 41.0000 1 9 148

IBTrACS Databaseについて

本データベースは、米国NOAAが公開する1842年以降の世界の熱帯低気圧のベストトラックデータアーカイブInternational Best Track Archive for Climate Stewardship (IBTrACS)を、ウェブで閲覧しやすい形式に変換したものです。

最終更新日:2021-12-03